地図

経路データ

SID SEASON NUMBER BASIN SUBBASIN NAME ISO_TIME NATURE LAT LON WMO_WIND WMO_PRES WMO_AGENCY TRACK_TYPE DIST2LAND LANDFALL IFLAG USA_AGENCY USA_ATCF_ID USA_LAT USA_LON USA_RECORD USA_STATUS USA_WIND USA_PRES USA_SSHS USA_R34_NE USA_R34_SE USA_R34_SW USA_R34_NW USA_R50_NE USA_R50_SE USA_R50_SW USA_R50_NW USA_R64_NE USA_R64_SE USA_R64_SW USA_R64_NW USA_POCI USA_ROCI USA_RMW USA_EYE TOKYO_LAT TOKYO_LON TOKYO_GRADE TOKYO_WIND TOKYO_PRES TOKYO_R50_DIR TOKYO_R50_LONG TOKYO_R50_SHORT TOKYO_R30_DIR TOKYO_R30_LONG TOKYO_R30_SHORT TOKYO_LAND CMA_LAT CMA_LON CMA_CAT CMA_WIND CMA_PRES HKO_LAT HKO_LON HKO_CAT HKO_WIND HKO_PRES NEWDELHI_LAT NEWDELHI_LON NEWDELHI_GRADE NEWDELHI_WIND NEWDELHI_PRES NEWDELHI_CI NEWDELHI_DP NEWDELHI_POCI REUNION_LAT REUNION_LON REUNION_TYPE REUNION_WIND REUNION_PRES REUNION_TNUM REUNION_CI REUNION_RMW REUNION_R34_NE REUNION_R34_SE REUNION_R34_SW REUNION_R34_NW REUNION_R50_NE REUNION_R50_SE REUNION_R50_SW REUNION_R50_NW REUNION_R64_NE REUNION_R64_SE REUNION_R64_SW REUNION_R64_NW BOM_LAT BOM_LON BOM_TYPE BOM_WIND BOM_PRES BOM_TNUM BOM_CI BOM_RMW BOM_R34_NE BOM_R34_SE BOM_R34_SW BOM_R34_NW BOM_R50_NE BOM_R50_SE BOM_R50_SW BOM_R50_NW BOM_R64_NE BOM_R64_SE BOM_R64_SW BOM_R64_NW BOM_ROCI BOM_POCI BOM_EYE BOM_POS_METHOD BOM_PRES_METHOD NADI_LAT NADI_LON NADI_CAT NADI_WIND NADI_PRES WELLINGTON_LAT WELLINGTON_LON WELLINGTON_WIND WELLINGTON_PRES DS824_LAT DS824_LON DS824_STAGE DS824_WIND DS824_PRES TD9636_LAT TD9636_LON TD9636_STAGE TD9636_WIND TD9636_PRES TD9635_LAT TD9635_LON TD9635_WIND TD9635_PRES TD9635_ROCI NEUMANN_LAT NEUMANN_LON NEUMANN_CLASS NEUMANN_WIND NEUMANN_PRES MLC_LAT MLC_LON MLC_CLASS MLC_WIND MLC_PRES USA_GUST BOM_GUST BOM_GUST_PER REUNION_GUST REUNION_GUST_PER USA_SEAHGT USA_SEARAD_NE USA_SEARAD_SE USA_SEARAD_SW USA_SEARAD_NW STORM_SPEED STORM_DIR
1991207N20105 1991 42 WP MM BRENDAN 1991-07-25 12:00:00 TS 20.0000 105.000 main 0 0 __O___________ -1 20.0000 105.000 1 23 996 16 66
1991207N20105 1991 42 WP MM BRENDAN 1991-07-25 15:00:00 TS 20.3282 105.779 main 0 0 __P___________ -1 20.3282 105.779 1 23 996 11 62
1991207N20105 1991 42 WP MM BRENDAN 1991-07-25 18:00:00 TS 20.5000 106.000 main 0 0 __O___________ -1 20.5000 106.000 1 23 997 4 286
1991207N20105 1991 42 WP MM BRENDAN 1991-07-25 21:00:00 TS 20.4301 105.410 main 0 0 __P___________ -1 20.4301 105.410 1 23 997 10 258
1991207N20105 1991 42 WP MM BRENDAN 1991-07-26 00:00:00 TS 20.3000 105.000 main 0 0 __O___________ -1 20.3000 105.000 1 23 998 6 99
1991207N20105 1991 42 WP MM BRENDAN 1991-07-26 03:00:00 TS 20.3387 106.025 main 0 0 __P___________ -1 20.3387 106.025 1 23 998 21 87
1991207N20105 1991 42 WP MM BRENDAN 1991-07-26 06:00:00 TS 20.4000 107.200 main 53 53 __O___________ -1 20.4000 107.200 1 23 998 13 88
1991207N20105 1991 42 WP MM BRENDAN 1991-07-26 09:00:00 TS 20.3764 107.380 main 59 53 __P___________ -1 20.3764 107.380 1 23 998 0 0
1991207N20105 1991 42 WP MM BRENDAN 1991-07-26 12:00:00 TS 20.4000 107.200 main 53 33 __O___________ -1 20.4000 107.200 1 23 998 3 310
1991207N20105 1991 42 WP MM BRENDAN 1991-07-26 15:00:00 TS 20.6000 107.100 main 33 15 __P___________ -1 20.6000 107.100 1 23 998 4 335
1991207N20105 1991 42 WP MM BRENDAN 1991-07-26 18:00:00 TS 20.8000 107.000 main 15 15 __O___________ -1 20.8000 107.000 1 23 998 2 333
1991207N20105 1991 42 WP MM BRENDAN 1991-07-26 21:00:00 TS 20.8150 106.985 main 15 15 __P___________ -1 20.8150 106.985 1 23 998 0 0
1991207N20105 1991 42 WP MM BRENDAN 1991-07-27 00:00:00 TS 20.8000 107.000 main 15 10 __O___________ -1 20.8000 107.000 1 23 998 1 16
1991207N20105 1991 42 WP MM BRENDAN 1991-07-27 03:00:00 TS 20.9000 107.000 main 10 0 __P___________ -1 20.9000 107.000 1 23 998 2 8
1991207N20105 1991 42 WP MM BRENDAN 1991-07-27 06:00:00 TS 21.0000 107.000 main 0 0 __O___________ -1 21.0000 107.000 1 23 998 1 0
1991207N20105 1991 42 WP MM BRENDAN 1991-07-27 09:00:00 TS 21.0150 107.000 main 0 0 __P___________ -1 21.0150 107.000 1 23 997 0 0
1991207N20105 1991 42 WP MM BRENDAN 1991-07-27 12:00:00 TS 21.0000 107.000 main 0 0 __O___________ -1 21.0000 107.000 1 23 997 1 244
1991207N20105 1991 42 WP MM BRENDAN 1991-07-27 15:00:00 TS 20.9849 106.940 main 0 0 __P___________ -1 20.9848 106.940 1 26 998 0 0
1991207N20105 1991 42 WP MM BRENDAN 1991-07-27 18:00:00 TS 21.0000 107.000 main 0 0 __O___________ -1 21.0000 107.000 1 29 999 5 78
1991207N20105 1991 42 WP MM BRENDAN 1991-07-27 21:00:00 TS 21.0780 107.422 main 0 0 __P___________ -1 21.0780 107.422 1 26 999 8 75
1991207N20105 1991 42 WP MM BRENDAN 1991-07-28 00:00:00 TS 21.2000 107.800 main 22 10 __O___________ -1 21.2000 107.800 1 23 999 4 46
1991207N20105 1991 42 WP MM BRENDAN 1991-07-28 03:00:00 TS 21.3425 107.710 main 10 0 __P___________ -1 21.3425 107.710 1 21 999 4 317
1991207N20105 1991 42 WP MM BRENDAN 1991-07-28 06:00:00 TS 21.5000 107.500 main 0 0 __O___________ -1 21.5000 107.500 0 19 999 4 321
1991207N20105 1991 42 WP MM BRENDAN 1991-07-28 09:00:00 TS 21.6525 107.442 main 0 0 __P___________ -1 21.6525 107.442 0 19 998 3 0
1991207N20105 1991 42 WP MM BRENDAN 1991-07-28 12:00:00 TS 21.8000 107.500 main 0 __O___________ -1 21.8000 107.500 0 19 998 3 21

デジタル台風データ・検索

IBTrACS Databaseについて

本データベースは、米国NOAAが公開する1842年以降の世界の熱帯低気圧のベストトラックデータアーカイブInternational Best Track Archive for Climate Stewardship (IBTrACS)を、ウェブで閲覧しやすい形式に変換したものです。

最終更新日:2021-11-26